Time;durP1;ratioP1;P1;durP2;ratioP2;P2;SDS_P1;SDS_P2;PMS_P1;PMS_P2;Temp;Humidity;BMP_temperature;BMP_pressure;BME280_temperature;BME280_humidity;BME280_pressure;Samples;Min_cycle;Max_cycle;Signal;HPM_P1;HPM_P2
2022/07/16 00:02:34;;;;;;;6.05;5.45;;;23.70;99.90;;;;;;6234508;28;87009;-64
2022/07/16 00:05:36;;;;;;;6.20;5.60;;;23.70;99.90;;;;;;6212803;28;89051;-64
2022/07/16 00:08:38;;;;;;;6.65;6.05;;;23.70;99.90;;;;;;6229804;28;90038;-63
2022/07/16 00:11:41;;;;;;;6.40;5.80;;;23.80;99.90;;;;;;6228986;28;89309;-64
2022/07/16 00:14:43;;;;;;;6.70;6.10;;;23.70;99.90;;;;;;6222973;28;89057;-63
2022/07/16 00:17:47;;;;;;;6.32;5.72;;;23.80;99.90;;;;;;6231573;28;87965;-63
2022/07/16 00:20:48;;;;;;;6.40;5.80;;;23.70;99.90;;;;;;6232168;28;89432;-64
2022/07/16 00:23:50;;;;;;;6.50;5.90;;;23.80;99.90;;;;;;6207332;28;89226;-63
2022/07/16 00:26:52;;;;;;;6.88;6.25;;;23.70;99.90;;;;;;6213385;28;88916;-64
2022/07/16 00:29:54;;;;;;;6.38;5.78;;;23.70;99.90;;;;;;6224318;28;88454;-64
2022/07/16 00:32:58;;;;;;;7.13;6.43;;;23.70;99.90;;;;;;6220004;28;89162;-64
2022/07/16 00:36:00;;;;;;;6.70;6.05;;;23.70;99.90;;;;;;6229292;28;89076;-63
2022/07/16 00:39:02;;;;;;;7.10;6.43;;;23.70;99.90;;;;;;6225552;28;88889;-64
2022/07/16 00:42:04;;;;;;;6.78;6.18;;;23.70;99.90;;;;;;6225145;28;89124;-64
2022/07/16 00:45:08;;;;;;;7.03;6.38;;;23.80;99.90;;;;;;6219639;28;89089;-63
2022/07/16 00:48:11;;;;;;;5.88;5.38;;;23.70;99.90;;;;;;6229701;28;89290;-63
2022/07/16 00:51:15;;;;;;;6.85;6.25;;;23.70;99.90;;;;;;6220831;28;88986;-63
2022/07/16 00:54:17;;;;;;;7.10;6.40;;;23.70;99.90;;;;;;6221940;28;89103;-63
2022/07/16 00:57:19;;;;;;;6.82;6.22;;;23.70;99.90;;;;;;6215383;28;88032;-63
2022/07/16 01:00:22;;;;;;;7.20;6.50;;;23.80;99.90;;;;;;6220936;28;88393;-63
2022/07/16 01:03:25;;;;;;;6.88;6.18;;;23.70;99.90;;;;;;6230706;28;89097;-63
2022/07/16 01:06:29;;;;;;;7.10;6.40;;;23.70;99.90;;;;;;6220458;28;89113;-63
2022/07/16 01:09:32;;;;;;;7.00;6.40;;;23.70;99.90;;;;;;6215455;28;90131;-63
2022/07/16 01:12:34;;;;;;;7.00;6.40;;;23.80;99.90;;;;;;6220163;28;87812;-63
2022/07/16 01:15:36;;;;;;;7.25;6.55;;;23.80;99.90;;;;;;6222008;28;89056;-63
2022/07/16 01:18:42;;;;;;;6.68;6.07;;;23.70;99.90;;;;;;6228761;28;87966;-63
2022/07/16 01:21:44;;;;;;;7.28;6.57;;;23.80;99.90;;;;;;6228139;28;89177;-63
2022/07/16 01:24:47;;;;;;;6.95;6.35;;;23.80;99.90;;;;;;6210445;28;89110;-63
2022/07/16 01:27:49;;;;;;;6.97;6.38;;;23.80;99.90;;;;;;6210495;28;87956;-63
2022/07/16 01:30:52;;;;;;;6.85;6.15;;;23.80;99.90;;;;;;6228090;28;88654;-63
2022/07/16 01:37:11;;;;;;;6.85;6.20;;;23.70;99.90;;;;;;6218962;28;88454;-63
2022/07/16 01:40:14;;;;;;;7.07;6.18;;;23.70;99.90;;;;;;6222261;28;89210;-64
2022/07/16 01:43:17;;;;;;;6.85;6.25;;;23.80;99.90;;;;;;6222204;28;89081;-64
2022/07/16 01:46:19;;;;;;;6.47;5.88;;;23.80;99.90;;;;;;6221493;28;89083;-63
2022/07/16 01:49:22;;;;;;;7.07;6.38;;;23.80;99.90;;;;;;6222486;28;88977;-63
2022/07/16 01:52:24;;;;;;;6.68;6.07;;;23.70;99.90;;;;;;6213618;28;89019;-63
2022/07/16 01:55:27;;;;;;;7.28;6.57;;;23.70;99.90;;;;;;6223924;28;89072;-63
2022/07/16 01:58:29;;;;;;;6.90;6.20;;;23.70;99.90;;;;;;6222623;28;89439;-64
2022/07/16 02:01:31;;;;;;;6.70;6.05;;;23.80;99.90;;;;;;6223367;28;88397;-63
2022/07/16 02:04:34;;;;;;;6.90;6.30;;;23.70;99.90;;;;;;6209807;28;89355;-63
2022/07/16 02:07:36;;;;;;;6.95;6.25;;;23.70;99.90;;;;;;6222772;28;89436;-63
2022/07/16 02:10:39;;;;;;;6.90;6.20;;;23.80;99.90;;;;;;6207931;28;90277;-63
2022/07/16 02:13:42;;;;;;;6.90;6.22;;;23.70;99.90;;;;;;6223356;28;88852;-63
2022/07/16 02:16:44;;;;;;;7.07;6.38;;;23.70;99.90;;;;;;6220431;28;89105;-63
2022/07/16 02:19:46;;;;;;;6.95;6.25;;;23.70;99.90;;;;;;6229230;28;89061;-63
2022/07/16 02:22:48;;;;;;;6.55;5.95;;;23.70;99.90;;;;;;6230343;28;89118;-63
2022/07/16 02:25:52;;;;;;;6.60;6.00;;;23.70;99.90;;;;;;6218613;28;89092;-63
2022/07/16 02:28:54;;;;;;;6.40;5.80;;;23.70;99.90;;;;;;6230237;28;89153;-63
2022/07/16 02:31:56;;;;;;;6.75;6.15;;;23.70;99.90;;;;;;6214634;28;88368;-63
2022/07/16 02:34:58;;;;;;;6.75;6.13;;;23.80;99.90;;;;;;6222623;28;89082;-63
2022/07/16 02:38:01;;;;;;;7.00;6.40;;;23.70;99.90;;;;;;6220720;28;89370;-64
2022/07/16 02:41:04;;;;;;;6.43;5.82;;;23.80;99.90;;;;;;6219667;28;89921;-63
2022/07/16 02:44:06;;;;;;;6.60;6.00;;;23.80;99.90;;;;;;6232995;28;89389;-63
2022/07/16 02:47:08;;;;;;;6.43;5.82;;;23.80;99.90;;;;;;6232902;28;89340;-63
2022/07/16 02:50:10;;;;;;;6.50;5.90;;;23.80;99.90;;;;;;6220492;28;89091;-64
2022/07/16 02:53:12;;;;;;;6.60;6.00;;;23.70;99.90;;;;;;6217379;28;89135;-63
2022/07/16 02:56:16;;;;;;;6.60;6.00;;;23.70;99.90;;;;;;6223181;28;89073;-63
2022/07/16 02:59:17;;;;;;;6.43;5.82;;;23.70;99.90;;;;;;6230128;28;89065;-63
2022/07/16 03:02:20;;;;;;;6.43;5.82;;;23.70;99.90;;;;;;6230049;28;88532;-63
2022/07/16 03:05:22;;;;;;;5.60;5.10;;;23.70;99.90;;;;;;6222583;28;89134;-63
2022/07/16 03:08:24;;;;;;;5.70;5.20;;;23.80;99.90;;;;;;6219642;28;89120;-63
2022/07/16 03:11:27;;;;;;;6.18;5.68;;;23.80;99.90;;;;;;6222567;28;90028;-63
2022/07/16 03:14:29;;;;;;;6.18;5.57;;;23.70;99.90;;;;;;6226717;28;89179;-63
2022/07/16 03:17:31;;;;;;;6.53;5.88;;;23.80;99.90;;;;;;6221480;28;88732;-63
2022/07/16 03:20:33;;;;;;;6.55;5.55;;;23.70;99.90;;;;;;6221595;28;89401;-63
2022/07/16 03:23:35;;;;;;;6.65;6.05;;;23.70;99.90;;;;;;6221535;28;89240;-63
2022/07/16 03:26:39;;;;;;;6.70;6.00;;;23.70;99.90;;;;;;6231991;28;87091;-63
2022/07/16 03:29:41;;;;;;;6.93;5.90;;;23.70;99.90;;;;;;6224162;28;89063;-63
2022/07/16 03:32:43;;;;;;;6.47;5.78;;;23.70;99.90;;;;;;6226755;28;88313;-63
2022/07/16 03:35:45;;;;;;;6.30;5.70;;;23.70;99.90;;;;;;6224850;28;89054;-63
2022/07/16 03:39:00;;;;;;;6.78;6.07;;;23.70;99.90;;;;;;6234449;28;89155;-63
2022/07/16 03:42:03;;;;;;;6.30;5.70;;;23.70;99.90;;;;;;6237569;28;89829;-63
2022/07/16 03:45:06;;;;;;;6.47;5.70;;;23.70;99.90;;;;;;6228485;28;88965;-63
2022/07/16 03:48:08;;;;;;;6.20;5.60;;;23.70;99.90;;;;;;6207763;28;89084;-63
2022/07/16 03:51:11;;;;;;;6.25;5.65;;;23.70;99.90;;;;;;6220535;28;89163;-63
2022/07/16 03:54:12;;;;;;;6.45;5.85;;;23.70;99.90;;;;;;6219954;28;89180;-63
2022/07/16 03:57:16;;;;;;;5.75;5.25;;;23.70;99.90;;;;;;6226496;28;88083;-63
2022/07/16 04:00:18;;;;;;;6.40;5.80;;;23.70;99.90;;;;;;6211086;28;89028;-63
2022/07/16 04:03:20;;;;;;;6.30;5.65;;;23.70;99.90;;;;;;6219619;28;88204;-63
2022/07/16 04:06:22;;;;;;;6.40;5.80;;;23.70;99.90;;;;;;6231040;28;89076;-63
2022/07/16 04:09:24;;;;;;;5.82;5.32;;;23.70;99.90;;;;;;6220626;28;89406;-63
2022/07/16 04:12:27;;;;;;;5.82;5.32;;;23.70;99.90;;;;;;6220665;28;90278;-63
2022/07/16 04:15:29;;;;;;;6.20;5.60;;;23.70;99.90;;;;;;6217800;28;88070;-63
2022/07/16 04:18:31;;;;;;;5.95;5.45;;;23.80;99.90;;;;;;6218696;28;89037;-63
2022/07/16 04:21:33;;;;;;;5.97;5.45;;;23.70;99.90;;;;;;6218262;28;89482;-63
2022/07/16 04:24:35;;;;;;;5.82;5.32;;;23.70;99.90;;;;;;6219566;28;89390;-63
2022/07/16 04:27:39;;;;;;;6.43;5.60;;;23.70;99.90;;;;;;6219866;28;91574;-63
2022/07/16 04:30:41;;;;;;;6.20;5.70;;;23.70;99.90;;;;;;6231500;28;89051;-63
2022/07/16 04:33:43;;;;;;;5.88;5.35;;;23.70;99.90;;;;;;6217835;28;88425;-63
2022/07/16 04:36:45;;;;;;;5.70;5.20;;;23.70;99.90;;;;;;6212157;28;89140;-63
2022/07/16 04:39:47;;;;;;;5.78;5.28;;;23.70;99.90;;;;;;6210803;28;88011;-63
2022/07/16 04:42:50;;;;;;;5.25;4.75;;;23.70;99.90;;;;;;6207864;28;89989;-63
2022/07/16 04:45:52;;;;;;;5.90;5.25;;;23.70;99.90;;;;;;6224766;28;89127;-63
2022/07/16 04:48:54;;;;;;;6.57;5.97;;;23.70;99.90;;;;;;6230779;28;89584;-63
2022/07/16 04:51:56;;;;;;;6.10;5.50;;;23.80;99.90;;;;;;6214434;28;89123;-63
2022/07/16 04:54:58;;;;;;;6.20;5.60;;;23.70;99.90;;;;;;6220793;28;89092;-63
2022/07/16 04:58:02;;;;;;;6.20;5.60;;;23.80;99.90;;;;;;6213530;28;89085;-63
2022/07/16 05:01:04;;;;;;;5.45;4.95;;;23.70;99.90;;;;;;6235377;28;89055;-63
2022/07/16 05:04:06;;;;;;;6.13;5.53;;;23.70;99.90;;;;;;6222763;28;88136;-63
2022/07/16 05:07:08;;;;;;;5.93;5.15;;;23.80;99.90;;;;;;6233452;28;89145;-63
2022/07/16 05:10:10;;;;;;;5.72;5.10;;;23.70;99.90;;;;;;6226044;28;89111;-63
2022/07/16 05:13:14;;;;;;;5.53;5.03;;;23.70;99.90;;;;;;6214391;28;90045;-63
2022/07/16 05:16:15;;;;;;;6.28;5.68;;;23.70;99.90;;;;;;6232094;28;89271;-63
2022/07/16 05:19:17;;;;;;;6.63;5.95;;;23.70;99.90;;;;;;6233190;28;89159;-63
2022/07/16 05:22:19;;;;;;;5.88;5.38;;;23.70;99.90;;;;;;6234310;28;89242;-63
2022/07/16 05:25:21;;;;;;;5.78;5.25;;;23.80;99.90;;;;;;6212350;28;89692;-63
2022/07/16 05:28:25;;;;;;;5.90;5.40;;;23.70;99.90;;;;;;6228696;28;89235;-63
2022/07/16 05:31:27;;;;;;;5.60;5.10;;;23.70;99.90;;;;;;6229769;28;89050;-63
2022/07/16 05:34:29;;;;;;;6.03;5.43;;;23.80;99.90;;;;;;6215352;28;87566;-63
2022/07/16 05:37:31;;;;;;;5.75;5.25;;;23.80;99.90;;;;;;6227696;28;88062;-63
2022/07/16 05:40:33;;;;;;;5.40;4.90;;;23.80;99.90;;;;;;6226674;28;87973;-63
2022/07/16 05:43:36;;;;;;;5.90;5.30;;;23.80;99.90;;;;;;6223479;28;90015;-63
2022/07/16 05:46:38;;;;;;;6.00;5.40;;;23.80;99.90;;;;;;6216843;28;89131;-63
2022/07/16 05:49:40;;;;;;;5.97;5.32;;;23.80;99.90;;;;;;6224534;28;89485;-63
2022/07/16 05:52:42;;;;;;;5.78;5.20;;;23.80;99.90;;;;;;6228573;28;89057;-63
2022/07/16 05:55:44;;;;;;;5.75;5.25;;;23.80;99.90;;;;;;6229881;28;88718;-63
2022/07/16 05:58:47;;;;;;;5.50;5.00;;;23.80;99.90;;;;;;6220267;28;89080;-63
2022/07/16 06:01:49;;;;;;;5.43;4.93;;;23.80;99.90;;;;;;6221021;28;89179;-63
2022/07/16 06:04:51;;;;;;;5.25;4.65;;;23.80;99.90;;;;;;6234732;28;88367;-64
2022/07/16 06:07:53;;;;;;;5.35;4.85;;;23.80;99.90;;;;;;6222096;28;89451;-63
2022/07/16 06:10:55;;;;;;;5.53;5.03;;;23.70;99.90;;;;;;6222268;28;88946;-63
2022/07/16 06:13:59;;;;;;;5.53;5.03;;;23.80;99.90;;;;;;6231068;28;90360;-63
2022/07/16 06:17:01;;;;;;;5.50;5.00;;;23.80;99.90;;;;;;6232130;28;89150;-63
2022/07/16 06:20:03;;;;;;;4.90;4.50;;;23.80;99.90;;;;;;6226107;28;89082;-63
2022/07/16 06:23:05;;;;;;;5.45;4.95;;;23.80;99.90;;;;;;6210818;28;89366;-63
2022/07/16 06:26:07;;;;;;;5.45;4.95;;;23.90;99.90;;;;;;6222419;28;89051;-63
2022/07/16 06:29:10;;;;;;;5.60;5.10;;;23.90;99.90;;;;;;6231796;28;89203;-63
2022/07/16 06:32:12;;;;;;;5.10;4.70;;;23.90;99.90;;;;;;6232706;28;89061;-64
2022/07/16 06:35:14;;;;;;;5.10;4.60;;;23.90;99.90;;;;;;6235288;28;88643;-64
2022/07/16 06:38:16;;;;;;;5.68;5.18;;;23.80;99.90;;;;;;6222315;28;89041;-64
2022/07/16 06:41:18;;;;;;;5.30;4.80;;;23.90;99.90;;;;;;6209866;28;87969;-64
2022/07/16 06:44:22;;;;;;;4.93;4.53;;;23.90;99.90;;;;;;6223284;28;90223;-64
2022/07/16 06:47:24;;;;;;;5.32;4.82;;;23.90;99.90;;;;;;6228102;28;87798;-64
2022/07/16 06:50:26;;;;;;;5.38;4.88;;;23.90;99.90;;;;;;6228367;28;88936;-64
2022/07/16 06:53:28;;;;;;;5.40;4.90;;;23.90;99.90;;;;;;6210654;28;89144;-64
2022/07/16 06:56:30;;;;;;;5.25;4.75;;;23.90;99.90;;;;;;6221556;28;89007;-64
2022/07/16 06:59:34;;;;;;;5.10;4.65;;;23.90;99.90;;;;;;6208754;28;89192;-64
2022/07/16 07:02:36;;;;;;;5.18;4.68;;;23.90;99.90;;;;;;6217683;28;89135;-64
2022/07/16 07:05:38;;;;;;;5.38;4.88;;;23.90;99.90;;;;;;6221107;28;88338;-64
2022/07/16 07:08:40;;;;;;;4.88;4.47;;;23.90;99.90;;;;;;6226880;28;89388;-64
2022/07/16 07:11:42;;;;;;;4.93;4.53;;;23.90;99.90;;;;;;6214379;28;89050;-64
2022/07/16 07:14:45;;;;;;;5.00;4.50;;;23.90;99.90;;;;;;6219279;28;90350;-64
2022/07/16 07:17:47;;;;;;;5.40;4.90;;;23.90;99.90;;;;;;6229537;28;89651;-64
2022/07/16 07:20:49;;;;;;;5.32;4.82;;;23.90;99.90;;;;;;6210444;28;89174;-65
2022/07/16 07:23:51;;;;;;;5.28;4.60;;;23.90;99.90;;;;;;6219817;28;89423;-65
2022/07/16 07:26:53;;;;;;;4.82;4.43;;;23.90;99.90;;;;;;6231485;28;89383;-64
2022/07/16 07:29:57;;;;;;;5.22;4.72;;;23.90;99.90;;;;;;6229726;28;89258;-64
2022/07/16 07:33:00;;;;;;;5.22;4.72;;;23.90;99.90;;;;;;6232534;28;89145;-64
2022/07/16 07:36:02;;;;;;;4.65;4.25;;;23.90;99.90;;;;;;6219808;28;88345;-64
2022/07/16 07:39:04;;;;;;;5.15;4.65;;;23.90;99.90;;;;;;6232413;28;88994;-65
2022/07/16 07:42:06;;;;;;;5.00;4.50;;;23.90;99.90;;;;;;6228797;28;89059;-64
2022/07/16 07:45:10;;;;;;;4.50;4.10;;;23.90;99.90;;;;;;6224333;28;88870;-64
2022/07/16 07:48:13;;;;;;;5.20;4.70;;;23.90;99.90;;;;;;6224565;28;89137;-64
2022/07/16 07:51:15;;;;;;;4.55;4.15;;;23.90;99.90;;;;;;6231924;28;89117;-64
2022/07/16 07:54:17;;;;;;;5.10;4.53;;;23.90;99.90;;;;;;6218989;28;89049;-64
2022/07/16 07:57:19;;;;;;;5.32;4.82;;;23.90;99.90;;;;;;6231569;28;88947;-64
2022/07/16 08:00:22;;;;;;;5.18;4.68;;;23.90;99.90;;;;;;6239883;28;89100;-64
2022/07/16 08:03:24;;;;;;;5.07;4.57;;;24.00;99.90;;;;;;6210068;28;89600;-64
2022/07/16 08:06:26;;;;;;;4.68;4.28;;;23.90;99.90;;;;;;6219869;28;88321;-64
2022/07/16 08:09:28;;;;;;;4.38;3.97;;;24.00;99.90;;;;;;6220427;28;91309;-65
2022/07/16 08:12:30;;;;;;;4.70;4.30;;;23.90;99.90;;;;;;6220669;28;89141;-64
2022/07/16 08:15:34;;;;;;;4.60;4.20;;;24.00;99.90;;;;;;6217800;28;90145;-64
2022/07/16 08:18:36;;;;;;;5.07;4.68;;;23.90;99.90;;;;;;6212580;28;89151;-65
2022/07/16 08:21:38;;;;;;;5.00;4.50;;;24.00;99.90;;;;;;6218554;28;88009;-64
2022/07/16 08:27:59;;;;;;;4.80;4.40;;;23.90;99.90;;;;;;6224276;28;87287;-65
2022/07/16 08:31:03;;;;;;;4.63;4.22;;;24.00;99.90;;;;;;6208389;28;89109;-64
2022/07/16 08:34:05;;;;;;;4.75;4.32;;;23.90;99.90;;;;;;6229075;28;89138;-64
2022/07/16 08:37:09;;;;;;;4.88;4.40;;;23.90;99.90;;;;;;6230885;28;88327;-64
2022/07/16 08:40:13;;;;;;;5.13;4.63;;;24.00;99.90;;;;;;6225340;28;88987;-64
2022/07/16 08:43:15;;;;;;;4.80;4.40;;;23.90;99.90;;;;;;6220419;28;88022;-64
2022/07/16 08:46:21;;;;;;;4.50;4.10;;;24.00;99.90;;;;;;6206747;28;89049;-64
2022/07/16 08:49:25;;;;;;;5.03;4.28;;;24.00;99.90;;;;;;6225580;28;88346;-64
2022/07/16 08:52:28;;;;;;;4.70;4.30;;;24.00;99.90;;;;;;6215678;28;89062;-64
2022/07/16 08:55:30;;;;;;;4.72;4.20;;;24.00;99.90;;;;;;6213533;28;87922;-64
2022/07/16 08:58:33;;;;;;;4.57;4.18;;;24.00;99.90;;;;;;6227764;28;89092;-65
2022/07/16 09:01:37;;;;;;;4.43;4.03;;;24.00;99.90;;;;;;6230703;28;89782;-65
2022/07/16 09:04:39;;;;;;;4.60;4.20;;;24.00;99.90;;;;;;6218883;28;90227;-65
2022/07/16 09:07:42;;;;;;;4.60;4.20;;;23.90;99.90;;;;;;6227822;28;87440;-65
2022/07/16 09:10:44;;;;;;;4.55;4.15;;;24.00;99.90;;;;;;6217610;28;89120;-64
2022/07/16 09:14:01;;;;;;;4.75;4.35;;;24.00;99.90;;;;;;6215532;28;89216;-65
2022/07/16 09:17:04;;;;;;;4.40;4.00;;;23.90;99.90;;;;;;6228230;28;90331;-64
2022/07/16 09:20:07;;;;;;;4.00;3.70;;;23.90;99.90;;;;;;6218649;28;89097;-65
2022/07/16 09:23:20;;;;;;;4.18;3.80;;;24.00;99.90;;;;;;6229655;28;89063;-65
2022/07/16 09:26:26;;;;;;;4.70;4.30;;;24.00;99.90;;;;;;6228763;28;89148;-65
2022/07/16 09:29:28;;;;;;;4.38;3.97;;;24.00;99.90;;;;;;6215232;28;89079;-65
2022/07/16 09:32:34;;;;;;;4.60;4.20;;;24.00;99.90;;;;;;6206673;28;89389;-65
2022/07/16 09:35:36;;;;;;;4.50;4.10;;;24.00;99.90;;;;;;6217873;28;89026;-65
2022/07/16 09:38:52;;;;;;;4.20;3.80;;;24.00;99.90;;;;;;6223751;28;88259;-65
2022/07/16 09:41:54;;;;;;;4.22;3.83;;;24.00;99.90;;;;;;6215283;28;89327;-65
2022/07/16 09:44:56;;;;;;;4.22;3.80;;;24.00;99.90;;;;;;6211585;28;89181;-65
2022/07/16 09:47:59;;;;;;;4.55;4.10;;;23.90;99.90;;;;;;6232807;28;89968;-65
2022/07/16 09:51:14;;;;;;;4.03;3.72;;;24.00;99.90;;;;;;6211126;28;89098;-65
2022/07/16 09:54:26;;;;;;;4.18;3.78;;;24.00;99.90;;;;;;6222863;28;89250;-65
2022/07/16 09:57:29;;;;;;;4.30;3.90;;;24.00;99.90;;;;;;6221932;28;89023;-65
2022/07/16 10:00:31;;;;;;;4.20;3.80;;;24.00;99.90;;;;;;6219647;28;88961;-65
2022/07/16 10:03:35;;;;;;;4.20;3.80;;;24.00;99.90;;;;;;6227374;28;89084;-64
2022/07/16 10:06:37;;;;;;;4.15;3.85;;;23.90;99.90;;;;;;6225056;28;89181;-64
2022/07/16 10:09:39;;;;;;;3.97;3.67;;;23.90;99.90;;;;;;6225473;28;88136;-65
2022/07/16 10:12:41;;;;;;;3.90;3.60;;;24.00;99.90;;;;;;6218370;28;89131;-64
2022/07/16 10:15:44;;;;;;;4.00;3.70;;;24.00;99.90;;;;;;6228660;28;89380;-65
2022/07/16 10:18:48;;;;;;;3.92;3.60;;;24.00;99.90;;;;;;6220253;28;90024;-64
2022/07/16 10:22:14;;;;;;;4.05;3.67;;;24.00;99.90;;;;;;6234148;28;89077;-65
2022/07/16 10:25:18;;;;;;;3.60;3.30;;;24.00;99.80;;;;;;6210210;28;89096;-65
2022/07/16 10:28:36;;;;;;;3.50;3.20;;;24.00;99.80;;;;;;6229084;28;87983;-64
2022/07/16 10:31:40;;;;;;;4.07;3.72;;;24.00;99.80;;;;;;6233960;28;89348;-65
2022/07/16 10:34:44;;;;;;;3.70;3.40;;;24.00;99.70;;;;;;6230045;28;89081;-65
2022/07/16 10:37:47;;;;;;;3.58;3.28;;;24.00;99.70;;;;;;6221272;28;89192;-64
2022/07/16 10:41:13;;;;;;;3.80;3.50;;;23.90;99.60;;;;;;6218008;28;88346;-64
2022/07/16 10:44:15;;;;;;;4.22;3.90;;;24.00;99.70;;;;;;6233077;28;89081;-65
2022/07/16 10:47:18;;;;;;;3.67;3.25;;;24.00;99.70;;;;;;6233226;28;89100;-65
2022/07/16 10:50:24;;;;;;;3.80;3.50;;;24.00;99.70;;;;;;6219397;28;89968;-65
2022/07/16 10:53:26;;;;;;;3.92;3.42;;;24.00;99.60;;;;;;6224688;28;89151;-65
2022/07/16 10:56:35;;;;;;;3.80;3.45;;;24.00;99.60;;;;;;6233652;28;89499;-65
2022/07/16 10:59:39;;;;;;;3.75;3.42;;;24.00;99.60;;;;;;6219043;28;90105;-65
2022/07/16 11:02:42;;;;;;;3.65;3.35;;;24.00;99.60;;;;;;6231823;28;89183;-65
2022/07/16 11:05:46;;;;;;;3.47;3.17;;;24.00;99.70;;;;;;6231670;28;88121;-65
2022/07/16 11:08:53;;;;;;;3.47;3.17;;;24.00;99.70;;;;;;6232800;28;89151;-65
2022/07/16 11:11:56;;;;;;;3.50;3.20;;;24.00;99.80;;;;;;6232105;28;88343;-65
2022/07/16 11:14:59;;;;;;;3.40;3.10;;;24.00;99.80;;;;;;6214976;28;89147;-65
2022/07/16 11:18:01;;;;;;;3.30;3.00;;;24.00;99.80;;;;;;6224514;28;88230;-65
2022/07/16 11:21:07;;;;;;;3.67;3.38;;;24.00;99.90;;;;;;6219027;28;90218;-65
2022/07/16 11:24:11;;;;;;;3.40;3.10;;;24.00;99.80;;;;;;6219137;28;89143;-65
2022/07/16 11:27:13;;;;;;;3.30;2.95;;;24.00;99.80;;;;;;6231683;28;89175;-65
2022/07/16 11:30:15;;;;;;;3.58;3.10;;;24.00;99.80;;;;;;6221346;28;89065;-65
2022/07/16 11:33:32;;;;;;;2.90;2.70;;;24.00;99.80;;;;;;6231887;28;89088;-66
2022/07/16 11:36:39;;;;;;;3.05;2.75;;;24.00;99.80;;;;;;6230790;28;88748;-65
2022/07/16 11:39:42;;;;;;;3.10;2.88;;;24.00;99.90;;;;;;6220042;28;89115;-65
2022/07/16 11:42:44;;;;;;;3.50;3.15;;;24.10;99.90;;;;;;6232102;28;87042;-65
2022/07/16 11:45:47;;;;;;;3.30;3.00;;;24.00;99.90;;;;;;6231719;28;89083;-65
2022/07/16 11:48:49;;;;;;;3.10;2.90;;;24.10;99.90;;;;;;6230549;28;89248;-66
2022/07/16 11:51:53;;;;;;;3.13;2.80;;;24.00;99.90;;;;;;6226753;28;89989;-65
2022/07/16 11:54:57;;;;;;;3.13;2.83;;;24.00;99.90;;;;;;6224755;28;89023;-65
2022/07/16 11:57:59;;;;;;;2.90;2.70;;;24.00;99.90;;;;;;6230044;28;89006;-65
2022/07/16 12:01:01;;;;;;;3.30;3.00;;;24.00;99.90;;;;;;6233084;28;89060;-65
2022/07/16 12:04:03;;;;;;;3.25;2.95;;;24.00;99.90;;;;;;6210412;28;87982;-65
2022/07/16 12:07:08;;;;;;;3.13;2.90;;;24.00;99.90;;;;;;6219944;28;89372;-65
2022/07/16 12:10:10;;;;;;;3.30;3.00;;;24.00;99.90;;;;;;6225422;28;89160;-65
2022/07/16 12:13:13;;;;;;;3.30;3.00;;;24.00;99.90;;;;;;6218237;28;88692;-65
2022/07/16 12:16:19;;;;;;;3.20;2.90;;;24.00;99.90;;;;;;6228550;28;90611;-65
2022/07/16 12:19:21;;;;;;;3.30;3.00;;;24.10;99.90;;;;;;6219783;28;89241;-65
2022/07/16 12:22:50;;;;;;;3.30;3.00;;;24.00;99.90;;;;;;6231761;28;90007;-65
2022/07/16 12:26:01;;;;;;;3.45;3.15;;;24.00;99.90;;;;;;6219863;28;89497;-65
2022/07/16 12:29:06;;;;;;;3.40;3.10;;;24.00;99.90;;;;;;6219000;28;89040;-65
2022/07/16 12:32:09;;;;;;;3.30;3.00;;;24.10;99.90;;;;;;6230950;28;89214;-65
2022/07/16 12:35:38;;;;;;;3.38;3.08;;;24.00;99.90;;;;;;6216278;28;87884;-65
2022/07/16 12:38:48;;;;;;;3.20;2.90;;;24.00;99.90;;;;;;6234189;28;89451;-65
2022/07/16 12:41:50;;;;;;;3.10;2.90;;;24.00;99.90;;;;;;6235343;27;89452;-65
2022/07/16 12:44:52;;;;;;;3.47;3.17;;;24.00;99.90;;;;;;6219986;28;88704;-65
2022/07/16 12:47:54;;;;;;;3.20;2.90;;;24.00;99.90;;;;;;6221108;28;89076;-65
2022/07/16 12:50:56;;;;;;;3.30;3.00;;;24.10;99.90;;;;;;6218590;28;89285;-65
2022/07/16 12:54:01;;;;;;;3.00;2.80;;;24.10;99.80;;;;;;6228573;28;90021;-65
2022/07/16 13:00:35;;;;;;;3.30;3.03;;;24.10;99.80;;;;;;6202601;28;87831;-65
2022/07/16 13:03:37;;;;;;;3.15;2.85;;;24.10;99.80;;;;;;6230205;28;88998;-65
2022/07/16 13:06:40;;;;;;;2.88;2.67;;;24.10;99.80;;;;;;6230748;28;89306;-65
2022/07/16 13:09:43;;;;;;;3.10;2.90;;;24.10;99.70;;;;;;6224212;28;89032;-65
2022/07/16 13:12:45;;;;;;;3.03;2.80;;;24.10;99.70;;;;;;6220814;28;89735;-65
2022/07/16 13:15:47;;;;;;;3.40;3.10;;;24.00;99.70;;;;;;6230783;28;88346;-65
2022/07/16 13:18:50;;;;;;;3.88;3.17;;;24.10;99.70;;;;;;6224065;28;89050;-65
2022/07/16 13:21:52;;;;;;;3.50;3.08;;;24.00;99.60;;;;;;6220552;28;89609;-65
2022/07/16 13:24:56;;;;;;;3.25;2.95;;;24.00;99.60;;;;;;6213244;28;90143;-65
2022/07/16 13:27:58;;;;;;;3.15;2.95;;;24.10;99.70;;;;;;6223268;28;89107;-65
2022/07/16 13:31:01;;;;;;;3.20;2.88;;;24.00;99.60;;;;;;6226178;28;89594;-65
2022/07/16 13:34:03;;;;;;;3.45;3.00;;;24.00;99.60;;;;;;6220884;28;89009;-65
2022/07/16 13:37:05;;;;;;;3.20;2.90;;;24.10;99.60;;;;;;6225237;28;89368;-65
2022/07/16 13:40:10;;;;;;;3.00;2.75;;;24.00;99.50;;;;;;6213210;28;89242;-65
2022/07/16 13:43:13;;;;;;;3.72;3.03;;;24.00;99.50;;;;;;6219781;28;89298;-65
2022/07/16 13:46:14;;;;;;;3.10;2.90;;;24.00;99.40;;;;;;6221477;28;88341;-65
2022/07/16 13:49:16;;;;;;;3.10;2.88;;;24.00;99.40;;;;;;6231738;28;89393;-65
2022/07/16 13:52:18;;;;;;;3.95;3.00;;;24.10;99.40;;;;;;6232298;28;89090;-65
2022/07/16 13:55:22;;;;;;;3.92;3.03;;;24.10;99.40;;;;;;6229310;28;90273;-65
2022/07/16 13:58:24;;;;;;;3.00;2.80;;;24.10;99.30;;;;;;6234640;28;89034;-65
2022/07/16 14:01:27;;;;;;;2.75;2.55;;;24.10;99.30;;;;;;6246071;27;90419;-65
2022/07/16 14:04:29;;;;;;;2.90;2.70;;;24.10;99.30;;;;;;6233644;28;89411;-65
2022/07/16 14:07:31;;;;;;;3.20;2.90;;;24.10;99.20;;;;;;6225742;28;89068;-65
2022/07/16 14:10:35;;;;;;;2.83;2.63;;;24.10;99.20;;;;;;6218154;28;89084;-65
2022/07/16 14:13:37;;;;;;;2.88;2.67;;;24.10;99.30;;;;;;6215759;28;89242;-65
2022/07/16 14:16:39;;;;;;;2.92;2.72;;;24.10;99.40;;;;;;6225986;28;88555;-65
2022/07/16 14:19:41;;;;;;;3.40;2.65;;;24.10;99.20;;;;;;6223014;28;89104;-65
2022/07/16 14:22:43;;;;;;;2.90;2.70;;;24.10;99.20;;;;;;6221030;28;89073;-65
2022/07/16 14:25:47;;;;;;;3.38;3.08;;;24.00;99.10;;;;;;6231608;28;90063;-66
2022/07/16 14:28:49;;;;;;;3.00;2.80;;;24.10;99.00;;;;;;6237913;28;87869;-65
2022/07/16 14:31:52;;;;;;;3.03;2.70;;;24.10;99.00;;;;;;6243847;28;89054;-65
2022/07/16 14:34:53;;;;;;;2.88;2.67;;;24.10;99.00;;;;;;6238392;28;88106;-65
2022/07/16 14:37:56;;;;;;;3.00;2.80;;;24.10;99.00;;;;;;6231286;28;88976;-65
2022/07/16 14:40:59;;;;;;;3.28;2.97;;;24.00;99.00;;;;;;6215165;28;89133;-65
2022/07/16 14:44:01;;;;;;;2.95;2.75;;;24.10;98.90;;;;;;6224024;28;89052;-66
2022/07/16 14:47:03;;;;;;;2.70;2.50;;;24.10;98.90;;;;;;6224819;28;88547;-65
2022/07/16 14:50:07;;;;;;;2.90;2.70;;;24.00;98.90;;;;;;6215915;28;91062;-66
2022/07/16 14:53:09;;;;;;;2.70;2.50;;;24.10;98.80;;;;;;6222256;28;89401;-65
2022/07/16 14:56:12;;;;;;;3.10;2.78;;;24.00;98.80;;;;;;6230861;28;90253;-65
2022/07/16 14:59:14;;;;;;;2.90;2.70;;;24.10;98.80;;;;;;6226028;28;89122;-65
2022/07/16 15:02:16;;;;;;;3.00;2.80;;;24.10;98.40;;;;;;6222798;28;89092;-65
2022/07/16 15:05:18;;;;;;;2.80;2.58;;;24.10;98.30;;;;;;6226031;28;89030;-65
2022/07/16 15:08:20;;;;;;;3.83;3.00;;;24.10;97.70;;;;;;6231677;28;89055;-65
2022/07/16 15:11:23;;;;;;;2.72;2.53;;;24.00;97.50;;;;;;6224679;28;89140;-66
2022/07/16 15:14:25;;;;;;;2.63;2.42;;;24.00;97.60;;;;;;6208669;28;89140;-65
2022/07/16 15:17:27;;;;;;;2.70;2.50;;;24.00;97.40;;;;;;6222554;28;88324;-65
2022/07/16 15:20:29;;;;;;;2.72;2.53;;;24.00;97.40;;;;;;6209314;28;88046;-66
2022/07/16 15:23:31;;;;;;;2.95;2.65;;;24.00;97.40;;;;;;6207678;28;88995;-65
2022/07/16 15:26:35;;;;;;;2.60;2.40;;;24.00;97.30;;;;;;6223099;28;89994;-65
2022/07/16 15:29:37;;;;;;;2.85;2.60;;;24.00;97.30;;;;;;6225725;28;88994;-65
2022/07/16 15:32:39;;;;;;;2.80;2.60;;;24.00;97.20;;;;;;6231518;28;89219;-65
2022/07/16 15:35:41;;;;;;;2.55;2.35;;;24.00;97.20;;;;;;6235270;28;89032;-65
2022/07/16 15:38:44;;;;;;;2.47;2.28;;;24.00;97.00;;;;;;6224229;28;88894;-65
2022/07/16 15:41:47;;;;;;;2.75;2.50;;;24.00;97.50;;;;;;6223459;28;89104;-65
2022/07/16 15:44:50;;;;;;;2.60;2.40;;;24.00;97.80;;;;;;6231586;28;89380;-65
2022/07/16 15:47:52;;;;;;;2.75;2.53;;;24.00;97.60;;;;;;6219011;28;88649;-65
2022/07/16 15:50:54;;;;;;;2.20;2.10;;;24.00;97.60;;;;;;6221202;28;88069;-65
2022/07/16 15:53:56;;;;;;;2.28;2.10;;;24.00;97.10;;;;;;6229283;28;89048;-65
2022/07/16 15:57:00;;;;;;;2.80;2.40;;;24.00;96.90;;;;;;6230865;28;90106;-65
2022/07/16 16:00:02;;;;;;;2.85;2.65;;;24.00;96.80;;;;;;6218326;28;89200;-65
2022/07/16 16:03:05;;;;;;;2.72;2.53;;;24.00;96.70;;;;;;6232167;28;89018;-65
2022/07/16 16:06:07;;;;;;;2.60;2.40;;;24.00;96.70;;;;;;6221162;28;89090;-65